createdAt,value
2023-05-05T00:00:54.022Z,11.08
2023-05-05T00:03:22.905Z,11.06
2023-05-05T00:05:51.826Z,11.05
2023-05-05T00:08:19.328Z,11.06
2023-05-05T00:10:48.531Z,11.00
2023-05-05T00:13:16.325Z,10.88
2023-05-05T00:15:45.871Z,10.79
2023-05-05T00:18:16.475Z,10.72
2023-05-05T00:20:44.877Z,10.70
2023-05-05T00:23:12.575Z,10.74
2023-05-05T00:25:40.809Z,10.80
2023-05-05T00:28:08.358Z,10.89
2023-05-05T00:30:37.506Z,10.87
2023-05-05T00:33:05.898Z,10.84
2023-05-05T00:35:33.526Z,10.75
2023-05-05T00:38:01.011Z,10.76
2023-05-05T00:40:28.931Z,10.75
2023-05-05T00:42:56.511Z,10.77
2023-05-05T00:45:24.031Z,10.75
2023-05-05T00:47:54.861Z,10.73
2023-05-05T00:50:29.355Z,10.67
2023-05-05T00:53:02.411Z,10.61
2023-05-05T00:55:30.426Z,10.62
2023-05-05T00:57:59.289Z,10.59
2023-05-05T01:00:27.493Z,10.50
2023-05-05T01:02:56.193Z,10.45
2023-05-05T01:05:25.924Z,10.50
2023-05-05T01:07:59.453Z,10.51
2023-05-05T01:10:48.925Z,10.48
2023-05-05T01:13:16.362Z,10.41
2023-05-05T01:15:50.466Z,10.43
2023-05-05T01:18:51.418Z,10.42
2023-05-05T01:21:29.468Z,10.32
2023-05-05T01:24:34.848Z,10.34
2023-05-05T01:27:27.347Z,10.36
2023-05-05T01:30:08.798Z,10.38
2023-05-05T01:32:47.970Z,10.29
2023-05-05T01:35:21.133Z,10.23
2023-05-05T01:38:08.287Z,10.29
2023-05-05T01:40:43.697Z,10.29
2023-05-05T01:43:16.025Z,10.21
2023-05-05T01:45:45.983Z,10.22
2023-05-05T01:48:17.917Z,10.19
2023-05-05T01:50:47.966Z,10.16
2023-05-05T01:53:18.580Z,10.15
2023-05-05T01:55:47.785Z,10.15
2023-05-05T01:58:16.944Z,10.17
2023-05-05T02:00:44.923Z,10.11
2023-05-05T02:03:14.943Z,10.15
2023-05-05T02:05:44.603Z,10.14
2023-05-05T02:08:12.889Z,10.17
2023-05-05T02:10:41.070Z,10.15
2023-05-05T02:13:12.634Z,10.05
2023-05-05T02:15:42.170Z,10.03
2023-05-05T02:18:11.292Z,10.12
2023-05-05T02:20:41.072Z,10.19
2023-05-05T02:23:09.025Z,10.11
2023-05-05T02:25:43.356Z,10.12
2023-05-05T02:28:23.331Z,10.11
2023-05-05T02:30:59.617Z,10.13
2023-05-05T02:33:31.667Z,10.17
2023-05-05T02:36:08.631Z,10.10
2023-05-05T02:38:40.365Z,10.08
2023-05-05T02:41:12.657Z,10.13
2023-05-05T02:43:42.647Z,10.03
2023-05-05T02:46:11.407Z,10.00
2023-05-05T02:48:39.751Z,10.07
2023-05-05T02:51:07.853Z,10.07
2023-05-05T02:53:36.470Z,10.01
2023-05-05T02:56:40.175Z,10.02
2023-05-05T02:59:58.722Z,9.94
2023-05-05T03:03:05.618Z,9.89
2023-05-05T03:05:43.980Z,9.89
2023-05-05T03:08:18.660Z,9.81
2023-05-05T03:11:05.245Z,9.88
2023-05-05T03:13:40.463Z,9.90
2023-05-05T03:16:09.589Z,9.92
2023-05-05T03:18:38.482Z,9.86
2023-05-05T03:21:10.086Z,9.79
2023-05-05T03:23:38.376Z,9.83
2023-05-05T03:26:06.889Z,9.76
2023-05-05T03:28:34.606Z,9.73
2023-05-05T03:31:03.842Z,9.72
2023-05-05T03:33:31.794Z,9.63
2023-05-05T03:35:59.737Z,9.64
2023-05-05T03:38:27.700Z,9.68
2023-05-05T03:40:56.098Z,9.69
2023-05-05T03:43:24.042Z,9.60
2023-05-05T03:45:52.483Z,9.65
2023-05-05T03:48:20.229Z,9.65
2023-05-05T03:50:49.342Z,9.68
2023-05-05T03:53:17.656Z,9.59
2023-05-05T03:55:45.310Z,9.61
2023-05-05T03:58:12.759Z,9.59
2023-05-05T04:00:40.701Z,9.59
2023-05-05T04:03:08.908Z,9.61
2023-05-05T04:05:36.735Z,9.63
2023-05-05T04:08:05.111Z,9.61
2023-05-05T04:10:33.055Z,9.62
2023-05-05T04:13:00.985Z,9.62
2023-05-05T04:15:28.928Z,9.65
2023-05-05T04:17:56.978Z,9.66
2023-05-05T04:20:25.085Z,9.71
2023-05-05T04:22:52.996Z,9.71
2023-05-05T04:25:21.226Z,9.75
2023-05-05T04:27:48.864Z,9.77
2023-05-05T04:30:16.608Z,9.80
2023-05-05T04:32:44.579Z,9.83
2023-05-05T04:35:12.993Z,9.92
2023-05-05T04:37:40.781Z,9.93
2023-05-05T04:40:09.707Z,9.99
2023-05-05T04:42:37.685Z,10.10
2023-05-05T04:45:05.657Z,10.18
2023-05-05T04:47:37.771Z,10.26
2023-05-05T04:50:07.303Z,10.36
2023-05-05T04:52:35.692Z,10.44
2023-05-05T04:55:03.593Z,10.51
2023-05-05T04:57:31.369Z,10.62
2023-05-05T05:00:00.854Z,10.73
2023-05-05T05:02:28.490Z,10.89
2023-05-05T05:04:56.141Z,11.03
2023-05-05T05:07:24.385Z,11.17
2023-05-05T05:09:52.106Z,11.30
2023-05-05T05:12:19.670Z,12.24
2023-05-05T05:14:47.510Z,12.37
2023-05-05T05:17:15.754Z,12.42
2023-05-05T05:19:43.296Z,12.33
2023-05-05T05:22:11.425Z,12.35
2023-05-05T05:24:39.085Z,12.43
2023-05-05T05:27:10.114Z,12.48
2023-05-05T05:29:38.625Z,12.51
2023-05-05T05:32:06.338Z,12.58
2023-05-05T05:34:34.355Z,12.62
2023-05-05T05:37:02.914Z,12.70
2023-05-05T05:39:30.775Z,12.75
2023-05-05T05:41:58.396Z,12.82
2023-05-05T05:44:26.518Z,12.90
2023-05-05T05:46:54.054Z,13.03
2023-05-05T05:49:21.771Z,13.11
2023-05-05T05:51:49.607Z,13.23
2023-05-05T05:54:17.579Z,13.30
2023-05-05T05:56:45.128Z,13.42
2023-05-05T05:59:13.198Z,13.59
2023-05-05T06:01:40.924Z,13.69
2023-05-05T06:04:09.276Z,13.84
2023-05-05T06:06:38.132Z,14.00
2023-05-05T06:09:05.795Z,14.18
2023-05-05T06:11:35.165Z,14.34
2023-05-05T06:14:03.086Z,14.54
2023-05-05T06:16:30.963Z,14.76
2023-05-05T06:18:59.235Z,14.95
2023-05-05T06:21:27.761Z,15.19
2023-05-05T06:23:55.405Z,15.39
2023-05-05T06:26:23.269Z,15.62
2023-05-05T06:28:50.822Z,15.86
2023-05-05T06:31:18.428Z,16.11
2023-05-05T06:33:46.307Z,16.22
2023-05-05T06:36:13.881Z,16.41
2023-05-05T06:38:41.421Z,16.67
2023-05-05T06:41:09.272Z,16.96
2023-05-05T06:43:36.789Z,17.25
2023-05-05T06:46:05.807Z,17.52
2023-05-05T06:48:33.657Z,17.80
2023-05-05T06:51:01.178Z,17.93
2023-05-05T06:53:28.962Z,18.18
2023-05-05T06:55:56.792Z,18.36
2023-05-05T06:58:24.315Z,18.52
2023-05-05T07:00:51.891Z,18.76
2023-05-05T07:03:19.985Z,18.95
2023-05-05T07:05:47.617Z,19.04
2023-05-05T07:08:15.146Z,19.10
2023-05-05T07:10:43.175Z,19.27
2023-05-05T07:13:10.915Z,19.49
2023-05-05T07:15:46.377Z,19.65
2023-05-05T07:18:15.027Z,19.97
2023-05-05T07:20:44.716Z,20.24
2023-05-05T07:23:12.301Z,20.47
2023-05-05T07:25:40.234Z,20.78
2023-05-05T07:28:07.814Z,21.03
2023-05-05T07:30:35.304Z,21.15
2023-05-05T07:33:04.109Z,21.37
2023-05-05T07:35:31.673Z,21.57
2023-05-05T07:37:59.146Z,21.34
2023-05-05T07:40:26.958Z,21.41
2023-05-05T07:42:54.448Z,21.56
2023-05-05T07:45:22.025Z,21.64
2023-05-05T07:47:49.888Z,21.53
2023-05-05T07:50:18.060Z,21.64
2023-05-05T07:52:49.865Z,21.83
2023-05-05T07:55:21.675Z,21.58
2023-05-05T07:57:49.817Z,22.10
2023-05-05T08:00:19.465Z,22.33
2023-05-05T08:02:48.083Z,22.52
2023-05-05T08:05:16.536Z,22.65
2023-05-05T08:07:44.145Z,22.81
2023-05-05T08:10:12.660Z,22.87
2023-05-05T08:12:40.599Z,22.81
2023-05-05T08:15:09.199Z,22.79
2023-05-05T08:17:57.465Z,22.48
2023-05-05T08:20:28.654Z,22.61
2023-05-05T08:22:56.543Z,22.81
2023-05-05T08:25:24.662Z,22.98
2023-05-05T08:27:52.282Z,22.98
2023-05-05T08:30:21.513Z,22.62
2023-05-05T08:32:49.129Z,22.74
2023-05-05T08:35:16.777Z,22.87
2023-05-05T08:37:44.693Z,22.49
2023-05-05T08:40:16.134Z,22.98
2023-05-05T08:42:45.860Z,23.37
2023-05-05T08:45:13.511Z,23.66
2023-05-05T08:47:43.321Z,23.98
2023-05-05T08:50:12.130Z,23.75
2023-05-05T08:52:45.570Z,23.68
2023-05-05T08:55:28.797Z,23.13
2023-05-05T08:57:58.209Z,23.14
2023-05-05T09:00:27.352Z,22.65
2023-05-05T09:02:57.735Z,22.33
2023-05-05T09:05:26.584Z,22.23
2023-05-05T09:07:54.699Z,22.04
2023-05-05T09:10:22.472Z,22.29
2023-05-05T09:12:51.616Z,22.80
2023-05-05T09:15:19.570Z,23.03
2023-05-05T09:17:47.335Z,23.22
2023-05-05T09:20:15.237Z,23.47
2023-05-05T09:22:45.003Z,23.87
2023-05-05T09:25:15.090Z,23.97
2023-05-05T09:27:49.060Z,24.03
2023-05-05T09:30:27.185Z,23.86
2023-05-05T09:32:55.685Z,24.20
2023-05-05T09:35:24.269Z,24.20
2023-05-05T09:37:51.906Z,23.83
2023-05-05T09:40:21.454Z,23.53
2023-05-05T09:43:01.869Z,24.00
2023-05-05T09:45:29.732Z,24.57
2023-05-05T09:48:00.352Z,24.75
2023-05-05T09:50:31.070Z,23.83
2023-05-05T09:53:01.271Z,24.00
2023-05-05T09:55:31.084Z,23.90
2023-05-05T09:58:18.271Z,23.97
2023-05-05T10:00:46.640Z,24.20
2023-05-05T10:03:14.397Z,24.44
2023-05-05T10:05:56.540Z,24.47
2023-05-05T10:08:30.451Z,24.55
2023-05-05T10:11:02.929Z,24.24
2023-05-05T10:13:31.762Z,24.50
2023-05-05T10:16:01.109Z,24.75
2023-05-05T10:18:30.137Z,25.26
2023-05-05T10:20:59.769Z,25.22
2023-05-05T10:23:41.765Z,25.41
2023-05-05T10:26:13.570Z,25.27
2023-05-05T10:29:01.696Z,25.19
2023-05-05T10:31:46.556Z,25.45
2023-05-05T10:34:49.182Z,25.26
2023-05-05T10:37:19.095Z,25.26
2023-05-05T10:39:48.679Z,25.38
2023-05-05T10:42:17.548Z,25.46
2023-05-05T10:44:45.315Z,25.62
2023-05-05T10:47:13.373Z,25.51
2023-05-05T10:49:43.259Z,25.74
2023-05-05T10:52:16.874Z,25.37
2023-05-05T10:54:56.037Z,25.59
2023-05-05T10:57:27.140Z,25.54
2023-05-05T10:59:54.611Z,25.26
2023-05-05T11:02:24.319Z,25.49
2023-05-05T11:05:23.344Z,25.16
2023-05-05T11:07:52.036Z,25.09
2023-05-05T11:10:21.227Z,24.87
2023-05-05T11:13:02.616Z,24.64
2023-05-05T11:15:30.629Z,24.22
2023-05-05T11:17:59.807Z,24.48
2023-05-05T11:20:36.807Z,24.87
2023-05-05T11:23:05.147Z,25.19
2023-05-05T11:25:36.573Z,25.51
2023-05-05T11:28:16.964Z,25.52
2023-05-05T11:30:57.296Z,25.61
2023-05-05T11:33:33.273Z,25.89
2023-05-05T11:36:08.532Z,25.81
2023-05-05T11:38:36.246Z,26.19
2023-05-05T11:41:19.428Z,26.08
2023-05-05T11:43:47.296Z,25.80
2023-05-05T11:46:16.970Z,26.26
2023-05-05T11:48:46.284Z,26.35
2023-05-05T11:51:15.396Z,26.38
2023-05-05T11:53:43.946Z,26.54
2023-05-05T11:56:12.836Z,26.65
2023-05-05T11:58:41.694Z,26.22
2023-05-05T12:01:09.681Z,25.87
2023-05-05T12:03:38.388Z,25.60
2023-05-05T12:06:07.379Z,26.03
2023-05-05T12:08:41.524Z,26.16
2023-05-05T12:11:10.831Z,26.41
2023-05-05T12:13:38.554Z,26.49
2023-05-05T12:16:13.672Z,26.76
2023-05-05T12:18:42.268Z,26.40
2023-05-05T12:21:20.520Z,26.08
2023-05-05T12:23:48.415Z,26.22
2023-05-05T12:26:29.132Z,26.21
2023-05-05T12:28:58.641Z,26.28
2023-05-05T12:31:39.789Z,26.46
2023-05-05T12:34:10.397Z,25.61
2023-05-05T12:36:38.546Z,26.16
2023-05-05T12:39:06.392Z,26.43
2023-05-05T12:41:34.663Z,26.15
2023-05-05T12:44:03.248Z,26.13
2023-05-05T12:46:31.968Z,25.65
2023-05-05T12:49:09.799Z,25.45
2023-05-05T12:51:37.931Z,25.29
2023-05-05T12:54:07.095Z,24.99
2023-05-05T12:56:38.962Z,24.73
2023-05-05T12:59:09.235Z,24.66
2023-05-05T13:01:51.029Z,24.50
2023-05-05T13:04:20.010Z,24.57
2023-05-05T13:06:49.554Z,24.56
2023-05-05T13:09:28.376Z,24.37
2023-05-05T13:11:56.977Z,24.26
2023-05-05T13:14:24.593Z,24.25
2023-05-05T13:16:53.108Z,24.15
2023-05-05T13:19:21.146Z,24.14
2023-05-05T13:21:48.626Z,24.09
2023-05-05T13:26:48.551Z,23.84
2023-05-05T13:29:16.872Z,23.80
2023-05-05T13:31:45.611Z,24.05
2023-05-05T13:34:13.459Z,24.22
2023-05-05T13:36:41.007Z,24.21
2023-05-05T13:39:08.989Z,24.11
2023-05-05T13:41:37.156Z,24.04
2023-05-05T13:44:04.849Z,24.09
2023-05-05T13:46:32.723Z,23.93
2023-05-05T13:49:00.528Z,23.91
2023-05-05T13:51:28.541Z,23.78
2023-05-05T13:53:55.993Z,23.71
2023-05-05T13:56:26.360Z,23.63
2023-05-05T13:58:54.483Z,23.56
2023-05-05T14:01:22.242Z,23.49
2023-05-05T14:03:50.156Z,23.43
2023-05-05T14:06:18.589Z,23.31
2023-05-05T14:08:46.470Z,23.29
2023-05-05T14:11:14.319Z,23.25
2023-05-05T14:13:41.920Z,23.23
2023-05-05T14:16:09.421Z,23.23
2023-05-05T14:18:37.283Z,23.26
2023-05-05T14:21:04.816Z,23.38
2023-05-05T14:23:32.670Z,23.51
2023-05-05T14:26:01.189Z,23.66
2023-05-05T14:28:28.687Z,23.60
2023-05-05T14:30:56.306Z,23.48
2023-05-05T14:33:24.156Z,23.59
2023-05-05T14:35:52.062Z,23.66
2023-05-05T14:38:19.692Z,23.67
2023-05-05T14:40:47.601Z,23.65
2023-05-05T14:43:15.133Z,23.85
2023-05-05T14:45:44.234Z,24.05
2023-05-05T14:48:12.183Z,24.07
2023-05-05T14:50:42.368Z,24.16
2023-05-05T14:53:10.698Z,24.20
2023-05-05T14:55:38.638Z,24.08
2023-05-05T14:58:06.338Z,24.05
2023-05-05T15:00:33.884Z,24.07
2023-05-05T15:03:01.981Z,24.13
2023-05-05T15:05:29.517Z,24.02
2023-05-05T15:07:57.025Z,24.05
2023-05-05T15:10:25.055Z,23.71
2023-05-05T15:12:52.591Z,23.73
2023-05-05T15:15:20.158Z,23.87
2023-05-05T15:17:48.082Z,23.92
2023-05-05T15:20:15.610Z,23.82
2023-05-05T15:22:43.132Z,23.62
2023-05-05T15:25:13.231Z,23.65
2023-05-05T15:27:40.948Z,23.48
2023-05-05T15:30:08.895Z,23.38
2023-05-05T15:32:36.954Z,23.17
2023-05-05T15:35:04.809Z,23.12
2023-05-05T15:37:32.669Z,23.16
2023-05-05T15:40:00.564Z,23.26
2023-05-05T15:42:28.080Z,23.37
2023-05-05T15:44:55.692Z,23.37
2023-05-05T15:47:23.504Z,23.31
2023-05-05T15:49:51.158Z,23.34
2023-05-05T15:52:19.171Z,23.34
2023-05-05T15:54:47.117Z,23.30
2023-05-05T15:57:14.658Z,23.16
2023-05-05T15:59:42.252Z,23.01
2023-05-05T16:02:10.106Z,22.95
2023-05-05T16:04:37.922Z,22.88
2023-05-05T16:07:05.543Z,22.75
2023-05-05T16:09:33.113Z,22.69
2023-05-05T16:12:01.015Z,22.60
2023-05-05T16:14:29.022Z,22.49
2023-05-05T16:16:56.842Z,22.30
2023-05-05T16:19:29.836Z,22.21
2023-05-05T16:21:57.510Z,22.07
2023-05-05T16:24:25.366Z,21.91
2023-05-05T16:26:53.111Z,21.76
2023-05-05T16:29:20.738Z,21.72
2023-05-05T16:31:48.646Z,21.84
2023-05-05T16:34:16.532Z,21.90
2023-05-05T16:36:44.548Z,21.95
2023-05-05T16:39:15.099Z,21.99
2023-05-05T16:41:42.564Z,22.08
2023-05-05T16:44:10.018Z,22.11
2023-05-05T16:46:40.044Z,22.05
2023-05-05T16:49:07.608Z,22.02
2023-05-05T16:51:35.106Z,21.84
2023-05-05T16:54:02.926Z,21.69
2023-05-05T16:56:30.420Z,21.71
2023-05-05T16:58:58.025Z,21.78
2023-05-05T17:01:25.897Z,21.84
2023-05-05T17:03:55.342Z,21.92
2023-05-05T17:06:22.824Z,21.95
2023-05-05T17:08:50.595Z,21.98
2023-05-05T17:11:18.066Z,21.99
2023-05-05T17:13:45.593Z,22.01
2023-05-05T17:16:13.441Z,21.98
2023-05-05T17:18:41.189Z,21.93
2023-05-05T17:21:08.698Z,21.87
2023-05-05T17:23:36.508Z,21.85
2023-05-05T17:26:05.286Z,21.79
2023-05-05T17:28:32.846Z,21.75
2023-05-05T17:31:01.612Z,21.65
2023-05-05T17:33:29.074Z,21.49
2023-05-05T17:35:56.600Z,21.36
2023-05-05T17:38:24.452Z,21.14
2023-05-05T17:40:51.937Z,20.98
2023-05-05T17:43:19.446Z,20.75
2023-05-05T17:45:47.276Z,20.60
2023-05-05T17:48:14.896Z,20.47
2023-05-05T17:50:43.433Z,20.30
2023-05-05T17:53:11.936Z,20.19
2023-05-05T17:55:39.540Z,20.06
2023-05-05T17:58:07.194Z,19.96
2023-05-05T18:00:36.099Z,19.85
2023-05-05T18:03:04.762Z,19.79
2023-05-05T18:05:32.469Z,19.72
2023-05-05T18:08:00.150Z,19.68
2023-05-05T18:10:27.991Z,19.60
2023-05-05T18:12:55.614Z,19.49
2023-05-05T18:15:23.220Z,19.33
2023-05-05T18:17:51.027Z,19.22
2023-05-05T18:20:18.572Z,19.08
2023-05-05T18:22:46.678Z,18.99
2023-05-05T18:25:14.536Z,18.94
2023-05-05T18:27:43.691Z,18.76
2023-05-05T18:30:11.917Z,18.60
2023-05-05T18:32:39.843Z,18.50
2023-05-05T18:35:08.023Z,18.33
2023-05-05T18:37:35.824Z,18.18
2023-05-05T18:40:03.845Z,18.18
2023-05-05T18:42:31.299Z,18.15
2023-05-05T18:44:58.821Z,18.07
2023-05-05T18:47:26.670Z,18.04
2023-05-05T18:49:54.157Z,17.97
2023-05-05T18:52:21.800Z,17.93
2023-05-05T18:54:49.605Z,17.81
2023-05-05T18:57:17.107Z,17.64
2023-05-05T18:59:44.653Z,17.53
2023-05-05T19:02:12.469Z,17.43
2023-05-05T19:04:41.393Z,17.32
2023-05-05T19:07:09.067Z,17.21
2023-05-05T19:09:37.589Z,17.18
2023-05-05T19:12:05.418Z,17.08
2023-05-05T19:14:32.985Z,16.97
2023-05-05T19:17:01.506Z,16.89
2023-05-05T19:19:29.336Z,16.87
2023-05-05T19:21:58.096Z,16.81
2023-05-05T19:24:25.945Z,16.75
2023-05-05T19:26:53.466Z,16.67
2023-05-05T19:29:21.225Z,16.66
2023-05-05T19:31:49.086Z,16.64
2023-05-05T19:34:16.615Z,16.52
2023-05-05T19:36:44.209Z,16.45
2023-05-05T19:39:13.687Z,16.30
2023-05-05T19:41:42.742Z,16.17
2023-05-05T19:44:10.325Z,16.08
2023-05-05T19:46:38.187Z,16.02
2023-05-05T19:49:05.711Z,15.88
2023-05-05T19:51:33.189Z,15.87
2023-05-05T19:54:01.049Z,15.83
2023-05-05T19:56:28.718Z,15.73
2023-05-05T19:59:00.866Z,15.69
2023-05-05T20:01:29.546Z,15.61
2023-05-05T20:03:57.673Z,15.59
2023-05-05T20:06:25.705Z,15.54
2023-05-05T20:08:54.793Z,15.51
2023-05-05T20:11:22.848Z,15.48
2023-05-05T20:13:50.952Z,15.46
2023-05-05T20:16:19.160Z,15.45
2023-05-05T20:18:47.056Z,15.46
2023-05-05T20:21:15.050Z,15.38
2023-05-05T20:23:43.279Z,15.36
2023-05-05T20:26:11.496Z,15.37
2023-05-05T20:28:40.016Z,15.27
2023-05-05T20:31:10.379Z,15.29
2023-05-05T20:33:38.246Z,15.19
2023-05-05T20:36:06.374Z,15.22
2023-05-05T20:38:34.038Z,15.21
2023-05-05T20:41:01.864Z,15.15
2023-05-05T20:43:29.450Z,15.09
2023-05-05T20:45:56.994Z,15.08
2023-05-05T20:48:24.785Z,15.02
2023-05-05T20:50:52.334Z,15.02
2023-05-05T20:53:21.006Z,14.93
2023-05-05T20:55:49.899Z,14.90
2023-05-05T20:58:17.703Z,14.81
2023-05-05T21:00:45.309Z,14.74
2023-05-05T21:03:13.177Z,14.64
2023-05-05T21:05:41.390Z,14.62
2023-05-05T21:08:08.946Z,14.60
2023-05-05T21:10:36.881Z,14.62
2023-05-05T21:13:04.486Z,14.57
2023-05-05T21:15:32.066Z,14.55
2023-05-05T21:17:59.911Z,14.52
2023-05-05T21:20:27.418Z,14.45
2023-05-05T21:22:56.818Z,14.48
2023-05-05T21:25:25.267Z,14.47
2023-05-05T21:27:53.207Z,14.43
2023-05-05T21:30:23.521Z,14.38
2023-05-05T21:32:51.918Z,14.38
2023-05-05T21:35:19.511Z,14.36
2023-05-05T21:37:47.395Z,14.36
2023-05-05T21:40:16.317Z,14.31
2023-05-05T21:42:44.173Z,14.29
2023-05-05T21:45:12.088Z,14.27
2023-05-05T21:47:39.866Z,14.22
2023-05-05T21:50:08.364Z,14.27
2023-05-05T21:52:36.021Z,14.25
2023-05-05T21:55:04.183Z,14.20
2023-05-05T21:57:31.722Z,14.20
2023-05-05T21:59:59.323Z,14.20
2023-05-05T22:02:27.167Z,14.18
2023-05-05T22:04:55.033Z,14.12
2023-05-05T22:07:22.613Z,14.15
2023-05-05T22:09:50.164Z,14.10
2023-05-05T22:12:18.077Z,14.08
2023-05-05T22:14:45.559Z,14.02
2023-05-05T22:17:13.112Z,13.89
2023-05-05T22:19:40.872Z,13.84
2023-05-05T22:22:08.370Z,13.76
2023-05-05T22:24:35.842Z,13.70
2023-05-05T22:27:03.684Z,13.68
2023-05-05T22:29:31.175Z,13.69
2023-05-05T22:31:58.715Z,13.69
2023-05-05T22:34:26.528Z,13.70
2023-05-05T22:36:54.035Z,13.71
2023-05-05T22:39:21.510Z,13.74
2023-05-05T22:41:49.323Z,13.78
2023-05-05T22:44:16.938Z,13.77
2023-05-05T22:46:44.599Z,13.74
2023-05-05T22:49:12.485Z,13.58
2023-05-05T22:51:40.353Z,13.49
2023-05-05T22:54:07.873Z,13.47
2023-05-05T22:56:36.138Z,13.43
2023-05-05T22:59:03.697Z,13.39
2023-05-05T23:01:33.084Z,13.40
2023-05-05T23:04:00.986Z,13.34
2023-05-05T23:06:28.825Z,13.30
2023-05-05T23:08:56.305Z,13.27
2023-05-05T23:11:25.934Z,13.34
2023-05-05T23:13:53.540Z,13.33
2023-05-05T23:16:21.048Z,13.32
2023-05-05T23:18:48.944Z,13.33
2023-05-05T23:21:16.461Z,13.37
2023-05-05T23:23:44.081Z,13.28
2023-05-05T23:26:13.526Z,13.29
2023-05-05T23:28:40.985Z,13.30
2023-05-05T23:31:09.074Z,13.37
2023-05-05T23:33:36.874Z,13.31
2023-05-05T23:36:04.686Z,13.44
2023-05-05T23:38:32.222Z,13.49
2023-05-05T23:41:00.030Z,13.51
2023-05-05T23:43:27.502Z,13.51
2023-05-05T23:45:55.003Z,13.57
2023-05-05T23:48:23.073Z,13.53
2023-05-05T23:50:50.525Z,13.56
2023-05-05T23:53:18.134Z,13.55
2023-05-05T23:55:46.106Z,13.51
2023-05-05T23:58:13.681Z,13.51
